Terminal Aerodrome Forecast
Issued by NWS

Home | Current Version | Previous Version | Text Only | Print | Product List | Glossary On
Versions: 1 2 3 4 5 6 7 8 9 10 11 12 13
921
FTUS45 KABQ 231139
TAFTCC
TAF
KTCC 231139Z 2312/2412 21011KT P6SM SKC
     FM231500 20014G24KT P6SM FEW120
     FM240200 17011KT P6SM FEW120
     FM240600 20008KT P6SM VCSH SCT120=

USA.gov is the U.S. government's official web portal to all federal, state and local government web resources and services.